createdAt,value
2022-11-17T00:01:56.069Z,19.40
2022-11-17T00:04:28.767Z,17.35
2022-11-17T00:07:00.820Z,18.40
2022-11-17T00:09:35.172Z,19.63
2022-11-17T00:12:22.661Z,18.67
2022-11-17T00:14:55.435Z,18.20
2022-11-17T00:17:28.933Z,22.95
2022-11-17T00:20:14.099Z,21.58
2022-11-17T00:22:47.422Z,19.55
2022-11-17T00:25:23.165Z,21.10
2022-11-17T00:27:56.446Z,20.02
2022-11-17T00:30:43.787Z,20.73
2022-11-17T00:33:29.475Z,21.70
2022-11-17T00:36:02.886Z,20.33
2022-11-17T00:38:36.326Z,21.08
2022-11-17T00:41:12.134Z,22.60
2022-11-17T00:43:45.504Z,20.63
2022-11-17T00:46:18.335Z,22.02
2022-11-17T00:48:51.957Z,20.08
2022-11-17T00:51:24.702Z,21.88
2022-11-17T00:53:56.739Z,19.40
2022-11-17T00:56:31.173Z,19.90
2022-11-17T00:59:03.345Z,19.48
2022-11-17T01:01:35.471Z,20.50
2022-11-17T01:04:08.382Z,18.92
2022-11-17T01:06:43.335Z,19.65
2022-11-17T01:09:17.610Z,20.25
2022-11-17T01:11:53.401Z,20.20
2022-11-17T01:14:32.833Z,18.95
2022-11-17T01:17:04.426Z,21.63
2022-11-17T01:19:36.252Z,20.27
2022-11-17T01:22:07.749Z,17.35
2022-11-17T01:24:39.822Z,19.27
2022-11-17T01:27:14.167Z,20.73
2022-11-17T01:29:46.321Z,20.27
2022-11-17T01:32:17.821Z,22.20
2022-11-17T01:34:50.603Z,18.35
2022-11-17T01:37:22.711Z,18.58
2022-11-17T01:39:54.646Z,16.80
2022-11-17T01:42:30.426Z,19.45
2022-11-17T01:45:08.967Z,19.95
2022-11-17T01:47:46.107Z,22.30
2022-11-17T01:50:31.938Z,17.63
2022-11-17T01:53:08.034Z,19.85
2022-11-17T01:55:45.378Z,19.60
2022-11-17T01:58:24.429Z,18.65
2022-11-17T03:35:47.791Z,21.30
2022-11-17T03:38:28.143Z,18.90
2022-11-17T03:41:04.065Z,24.75
2022-11-17T03:43:36.656Z,20.08
2022-11-17T03:46:13.472Z,19.25
2022-11-17T03:52:01.731Z,21.55
2022-11-17T03:54:34.201Z,21.15
2022-11-17T03:57:11.320Z,20.50
2022-11-17T03:59:49.342Z,19.05
2022-11-17T04:02:22.201Z,21.17
2022-11-17T04:05:06.652Z,21.15
2022-11-17T04:07:43.257Z,19.88
2022-11-17T04:11:05.361Z,21.33
2022-11-17T04:14:42.581Z,22.20
2022-11-17T04:17:30.662Z,19.83
2022-11-17T04:20:02.922Z,21.10
2022-11-17T04:22:34.849Z,20.95
2022-11-17T04:25:22.593Z,21.20
2022-11-17T04:28:25.275Z,20.33
2022-11-17T04:30:57.652Z,21.20
2022-11-17T04:33:29.424Z,22.65
2022-11-17T04:36:01.741Z,19.85
2022-11-17T04:38:33.819Z,23.25
2022-11-17T04:41:23.500Z,24.40
2022-11-17T04:43:55.690Z,23.45
2022-11-17T04:46:29.134Z,21.33
2022-11-17T04:49:02.341Z,23.50
2022-11-17T04:51:36.051Z,24.00
2022-11-17T04:54:09.891Z,20.30
2022-11-17T04:56:44.843Z,22.70
2022-11-17T04:59:18.391Z,23.33
2022-11-17T05:01:51.087Z,21.25
2022-11-17T05:04:36.963Z,20.85
2022-11-17T05:07:10.007Z,22.27
2022-11-17T05:09:42.314Z,21.05
2022-11-17T05:12:31.753Z,22.75
2022-11-17T05:15:03.755Z,25.27
2022-11-17T05:17:33.302Z,22.80
2022-11-17T05:20:04.972Z,21.98
2022-11-17T05:22:49.211Z,24.25
2022-11-17T05:25:30.128Z,22.58
2022-11-17T05:28:04.953Z,24.08
2022-11-17T05:31:01.552Z,21.75
2022-11-17T05:33:37.756Z,21.92
2022-11-17T05:39:06.495Z,25.75
2022-11-17T05:41:38.602Z,25.67
2022-11-17T05:44:13.305Z,22.98
2022-11-17T05:47:11.791Z,24.02
2022-11-17T05:49:43.859Z,23.95
2022-11-17T05:52:15.512Z,22.73
2022-11-17T05:54:47.582Z,22.10
2022-11-17T05:57:27.543Z,23.05
2022-11-17T06:00:06.072Z,24.38
2022-11-17T06:02:42.844Z,19.75
2022-11-17T06:05:20.215Z,24.70
2022-11-17T06:07:55.038Z,22.58
2022-11-17T06:10:26.962Z,23.38
2022-11-17T06:12:59.258Z,23.15
2022-11-17T06:15:34.795Z,25.95
2022-11-17T06:18:13.074Z,23.38
2022-11-17T06:20:48.838Z,22.88
2022-11-17T06:23:23.494Z,25.45
2022-11-17T06:25:55.715Z,23.67
2022-11-17T06:28:30.934Z,25.35
2022-11-17T06:31:05.832Z,26.25
2022-11-17T06:33:40.233Z,22.77
2022-11-17T06:36:12.881Z,23.25
2022-11-17T06:38:45.214Z,26.50
2022-11-17T06:41:17.156Z,24.90
2022-11-17T06:43:49.654Z,19.15
2022-11-17T06:46:24.764Z,23.35
2022-11-17T06:48:58.235Z,21.38
2022-11-17T06:51:30.234Z,23.33
2022-11-17T06:54:04.093Z,21.98
2022-11-17T06:56:37.473Z,21.67
2022-11-17T06:59:12.455Z,20.83
2022-11-17T07:01:47.058Z,23.45
2022-11-17T07:04:19.940Z,26.27
2022-11-17T07:06:51.827Z,24.00
2022-11-17T07:09:27.849Z,23.83
2022-11-17T07:12:00.056Z,23.95
2022-11-17T07:14:32.319Z,21.70
2022-11-17T07:17:06.862Z,26.52
2022-11-17T07:19:39.162Z,20.90
2022-11-17T07:22:11.180Z,23.50
2022-11-17T07:24:44.080Z,21.67
2022-11-17T07:27:16.139Z,21.95
2022-11-17T07:29:48.541Z,21.83
2022-11-17T07:32:23.038Z,23.75
2022-11-17T07:34:55.227Z,20.80
2022-11-17T07:37:45.738Z,18.85
2022-11-17T07:40:19.082Z,23.75
2022-11-17T07:42:52.438Z,23.50
2022-11-17T07:45:28.671Z,22.33
2022-11-17T07:48:07.679Z,20.48
2022-11-17T07:50:41.759Z,20.92
2022-11-17T07:53:13.585Z,20.08
2022-11-17T07:55:45.758Z,17.30
2022-11-17T07:58:17.643Z,20.08
2022-11-17T08:00:49.957Z,20.05
2022-11-17T08:03:24.729Z,21.70
2022-11-17T08:05:57.935Z,20.33
2022-11-17T08:08:29.766Z,18.85
2022-11-17T08:11:05.846Z,20.35
2022-11-17T08:13:39.077Z,18.67
2022-11-17T08:16:12.614Z,18.75
2022-11-17T08:18:52.079Z,21.45
2022-11-17T08:21:25.365Z,21.25
2022-11-17T08:24:05.990Z,19.23
2022-11-17T08:26:39.067Z,17.83
2022-11-17T08:29:11.427Z,21.73
2022-11-17T08:31:46.549Z,19.00
2022-11-17T08:34:21.507Z,19.58
2022-11-17T08:36:54.307Z,22.85
2022-11-17T08:39:26.727Z,17.98
2022-11-17T08:41:59.352Z,21.35
2022-11-17T08:44:34.486Z,18.52
2022-11-17T08:47:06.750Z,19.33
2022-11-17T08:49:41.430Z,22.25
2022-11-17T08:52:14.149Z,22.33
2022-11-17T08:54:45.997Z,20.42
2022-11-17T08:57:18.534Z,22.50
2022-11-17T08:59:51.109Z,22.00
2022-11-17T09:02:23.391Z,23.58
2022-11-17T09:04:57.956Z,25.30
2022-11-17T09:07:34.677Z,23.75
2022-11-17T09:10:11.334Z,23.33
2022-11-17T09:12:43.670Z,23.85
2022-11-17T09:15:15.508Z,23.90
2022-11-17T09:17:48.349Z,23.52
2022-11-17T09:20:23.913Z,22.25
2022-11-17T09:22:56.150Z,21.15
2022-11-17T09:25:28.231Z,23.38
2022-11-17T09:28:01.551Z,24.40
2022-11-17T09:30:33.432Z,23.35
2022-11-17T09:33:22.635Z,28.60
2022-11-17T09:36:07.759Z,24.95
2022-11-17T09:38:40.937Z,24.55
2022-11-17T09:41:26.627Z,25.52
2022-11-17T09:44:10.071Z,27.80
2022-11-17T09:46:55.272Z,27.55
2022-11-17T09:49:39.109Z,28.88
2022-11-17T09:52:21.756Z,26.65
2022-11-17T09:54:59.349Z,26.10
2022-11-17T09:57:42.285Z,26.67
2022-11-17T10:00:18.851Z,29.83
2022-11-17T10:02:51.551Z,24.60
2022-11-17T10:05:31.628Z,27.42
2022-11-17T10:08:26.429Z,28.98
2022-11-17T10:11:21.033Z,29.10
2022-11-17T10:13:54.271Z,22.08
2022-11-17T10:16:27.163Z,30.58
2022-11-17T10:19:23.550Z,28.92
2022-11-17T10:22:00.085Z,30.85
2022-11-17T10:24:43.840Z,28.67
2022-11-17T10:27:23.549Z,26.42
2022-11-17T10:30:03.989Z,29.95
2022-11-17T10:32:41.667Z,27.30
2022-11-17T10:35:19.567Z,27.83
2022-11-17T10:37:58.716Z,29.77
2022-11-17T10:40:54.949Z,29.10
2022-11-17T10:43:32.051Z,28.92
2022-11-17T10:46:07.957Z,30.77
2022-11-17T10:48:42.110Z,27.73
2022-11-17T10:51:26.789Z,28.70
2022-11-17T10:54:08.551Z,24.23
2022-11-17T10:56:48.990Z,28.60
2022-11-17T10:59:48.690Z,34.80
2022-11-17T11:02:32.078Z,20.42
2022-11-17T11:05:31.951Z,27.73
2022-11-17T11:08:27.830Z,23.17
2022-11-17T11:11:36.407Z,28.42
2022-11-17T11:14:29.789Z,26.42
2022-11-17T11:17:03.389Z,27.27
2022-11-17T11:19:37.390Z,25.85
2022-11-17T11:22:31.271Z,24.75
2022-11-17T11:25:16.596Z,26.42
2022-11-17T11:27:59.933Z,29.60
2022-11-17T11:30:40.872Z,23.83
2022-11-17T11:33:28.354Z,23.88
2022-11-17T11:36:28.669Z,27.42
2022-11-17T11:39:07.377Z,26.17
2022-11-17T11:42:07.468Z,25.48
2022-11-17T11:44:58.871Z,23.23
2022-11-17T11:47:51.438Z,25.30
2022-11-17T11:50:27.482Z,23.98
2022-11-17T11:53:06.795Z,23.50
2022-11-17T11:55:41.629Z,21.20
2022-11-17T11:58:20.797Z,27.95
2022-11-17T12:00:57.477Z,24.88
2022-11-17T12:03:39.087Z,26.85
2022-11-17T12:06:33.753Z,22.90
2022-11-17T12:09:19.950Z,23.73
2022-11-17T12:12:04.191Z,21.33
2022-11-17T12:14:38.518Z,21.05
2022-11-17T12:17:23.752Z,18.35
2022-11-17T12:20:07.528Z,21.10
2022-11-17T12:23:13.349Z,19.95
2022-11-17T12:25:53.719Z,18.45
2022-11-17T12:28:37.400Z,25.88
2022-11-17T12:31:12.763Z,15.07
2022-11-17T12:34:14.028Z,22.15
2022-11-17T12:37:26.716Z,22.75
2022-11-17T12:40:02.253Z,21.02
2022-11-17T12:42:35.974Z,19.23
2022-11-17T12:45:14.370Z,22.98
2022-11-17T12:48:05.218Z,22.23
2022-11-17T12:51:01.852Z,20.40
2022-11-17T12:53:58.734Z,21.35
2022-11-17T12:57:00.844Z,25.35
2022-11-17T12:59:57.041Z,25.73
2022-11-17T13:02:44.088Z,20.85
2022-11-17T13:05:22.863Z,20.73
2022-11-17T13:08:14.279Z,19.23
2022-11-17T13:10:49.480Z,22.60
2022-11-17T13:13:24.268Z,21.33
2022-11-17T13:15:59.400Z,18.40
2022-11-17T13:18:35.364Z,24.38
2022-11-17T13:21:19.163Z,23.58
2022-11-17T13:23:52.251Z,22.70
2022-11-17T13:26:31.965Z,19.90
2022-11-17T13:29:07.923Z,21.67
2022-11-17T13:31:40.804Z,18.73
2022-11-17T13:34:21.522Z,20.85
2022-11-17T13:36:57.722Z,22.52
2022-11-17T13:39:31.524Z,23.75
2022-11-17T13:42:07.005Z,18.52
2022-11-17T13:44:41.245Z,24.13
2022-11-17T13:47:24.204Z,19.73
2022-11-17T13:49:57.202Z,19.73
2022-11-17T13:52:45.326Z,24.08
2022-11-17T13:55:23.099Z,19.75
2022-11-17T13:58:04.208Z,25.23
2022-11-17T14:00:37.571Z,20.65
2022-11-17T14:03:36.643Z,20.52
2022-11-17T14:06:10.803Z,22.83
2022-11-17T14:08:45.285Z,23.17
2022-11-17T14:11:30.524Z,21.15
2022-11-17T14:14:07.882Z,26.65
2022-11-17T14:16:42.848Z,22.13
2022-11-17T14:19:29.722Z,20.65
2022-11-17T14:22:04.171Z,23.08
2022-11-17T14:24:36.577Z,23.75
2022-11-17T14:27:16.572Z,20.77
2022-11-17T14:29:51.234Z,17.88
2022-11-17T14:32:23.474Z,24.92
2022-11-17T14:34:57.557Z,24.58
2022-11-17T14:37:30.991Z,23.73
2022-11-17T14:40:08.848Z,21.55
2022-11-17T14:42:41.692Z,22.75
2022-11-17T14:45:19.809Z,23.17
2022-11-17T14:47:52.167Z,22.15
2022-11-17T14:50:24.329Z,18.95
2022-11-17T14:52:56.768Z,20.00
2022-11-17T14:55:30.325Z,18.38
2022-11-17T14:58:02.726Z,21.10
2022-11-17T15:00:41.058Z,23.98
2022-11-17T15:03:13.349Z,21.23
2022-11-17T15:05:49.333Z,20.90
2022-11-17T15:08:21.536Z,25.38
2022-11-17T15:10:55.669Z,23.35
2022-11-17T15:13:27.939Z,21.10
2022-11-17T15:16:08.554Z,23.58
2022-11-17T15:18:41.153Z,23.63
2022-11-17T15:21:15.193Z,25.33
2022-11-17T15:23:48.072Z,26.48
2022-11-17T15:26:23.716Z,41.47
2022-11-17T15:28:58.110Z,23.88
2022-11-17T15:31:32.953Z,23.77
2022-11-17T15:34:05.594Z,27.70
2022-11-17T15:36:37.485Z,25.20
2022-11-17T15:39:10.232Z,24.13
2022-11-17T15:41:42.195Z,26.33
2022-11-17T15:44:15.092Z,28.80
2022-11-17T15:46:49.964Z,28.42
2022-11-17T15:49:22.255Z,28.75
2022-11-17T15:51:54.536Z,24.88
2022-11-17T15:54:26.819Z,27.58
2022-11-17T15:57:00.965Z,26.77
2022-11-17T15:59:33.694Z,30.80
2022-11-17T16:02:14.258Z,33.90
2022-11-17T16:04:46.586Z,28.85
2022-11-17T16:07:18.717Z,29.45
2022-11-17T16:09:51.110Z,29.63
2022-11-17T16:12:24.832Z,32.35
2022-11-17T16:14:57.142Z,33.97
2022-11-17T16:17:32.056Z,36.25
2022-11-17T16:20:30.887Z,34.58
2022-11-17T16:23:02.782Z,32.50
2022-11-17T16:25:35.832Z,31.42
2022-11-17T16:28:08.432Z,30.08
2022-11-17T16:30:41.237Z,32.25
2022-11-17T16:33:20.819Z,32.60
2022-11-17T16:35:53.659Z,33.58
2022-11-17T16:38:30.609Z,35.53
2022-11-17T16:41:03.898Z,34.70
2022-11-17T16:43:38.997Z,34.90
2022-11-17T16:46:20.023Z,33.80
2022-11-17T16:48:55.854Z,33.10
2022-11-17T16:51:29.699Z,33.80
2022-11-17T16:54:03.498Z,30.95
2022-11-17T16:56:37.423Z,30.88
2022-11-17T16:59:09.548Z,31.55
2022-11-17T17:01:42.419Z,28.02
2022-11-17T17:04:17.819Z,30.35
2022-11-17T17:06:50.713Z,32.05
2022-11-17T17:09:27.911Z,30.45
2022-11-17T17:12:01.175Z,29.95
2022-11-17T17:14:33.256Z,31.80
2022-11-17T17:17:05.936Z,35.17
2022-11-17T17:19:40.736Z,30.80
2022-11-17T17:22:13.219Z,31.23
2022-11-17T17:24:48.555Z,32.47
2022-11-17T17:27:22.877Z,32.72
2022-11-17T17:30:06.034Z,33.92
2022-11-17T17:32:41.755Z,31.58
2022-11-17T17:35:16.475Z,35.63
2022-11-17T17:37:49.353Z,32.20
2022-11-17T17:40:21.513Z,34.85
2022-11-17T17:42:54.112Z,24.48
2022-11-17T17:45:26.475Z,39.10
2022-11-17T17:47:59.313Z,31.60
2022-11-17T17:51:10.216Z,32.17
2022-11-17T17:53:46.925Z,35.25
2022-11-17T17:56:20.566Z,41.53
2022-11-17T17:58:53.724Z,41.42
2022-11-17T18:01:27.648Z,41.17
2022-11-17T18:04:05.353Z,46.03
2022-11-17T18:06:41.247Z,31.52
2022-11-17T18:09:19.938Z,42.72
2022-11-17T18:11:53.204Z,37.25
2022-11-17T18:14:27.205Z,40.45
2022-11-17T18:16:59.304Z,42.05
2022-11-17T18:19:33.445Z,44.03
2022-11-17T18:22:05.766Z,45.33
2022-11-17T18:24:41.645Z,46.05
2022-11-17T18:27:16.524Z,45.90
2022-11-17T18:29:49.044Z,40.17
2022-11-17T18:32:21.285Z,45.63
2022-11-17T18:34:53.845Z,51.25
2022-11-17T18:37:26.443Z,48.05
2022-11-17T18:40:02.326Z,49.08
2022-11-17T18:42:36.726Z,45.28
2022-11-17T18:45:10.844Z,39.90
2022-11-17T18:47:43.323Z,42.50
2022-11-17T18:50:19.724Z,40.28
2022-11-17T18:52:51.482Z,43.90
2022-11-17T18:55:32.642Z,43.15
2022-11-17T18:58:04.640Z,44.42
2022-11-17T19:00:39.744Z,41.20
2022-11-17T19:03:11.997Z,48.53
2022-11-17T19:05:44.467Z,41.75
2022-11-17T19:08:16.606Z,41.15
2022-11-17T19:11:00.797Z,38.15
2022-11-17T19:13:37.728Z,42.38
2022-11-17T19:16:15.107Z,37.20
2022-11-17T19:18:50.166Z,42.75
2022-11-17T19:21:24.270Z,44.85
2022-11-17T19:23:58.027Z,39.22
2022-11-17T19:26:34.667Z,36.33
2022-11-17T19:29:15.944Z,41.83
2022-11-17T19:31:49.527Z,43.17
2022-11-17T19:34:21.427Z,41.25
2022-11-17T19:36:53.781Z,37.88
2022-11-17T19:39:25.686Z,40.78
2022-11-17T19:45:19.344Z,39.75
2022-11-17T19:47:51.544Z,47.28
2022-11-17T19:50:23.385Z,40.45
2022-11-17T19:52:55.490Z,43.75
2022-11-17T19:55:27.244Z,37.38
2022-11-17T19:58:02.146Z,41.60
2022-11-17T20:00:34.206Z,44.05
2022-11-17T20:03:06.889Z,47.78
2022-11-17T20:05:38.773Z,29.90
2022-11-17T20:08:11.042Z,50.08
2022-11-17T20:10:43.064Z,45.67
2022-11-17T20:13:18.044Z,44.03
2022-11-17T20:15:50.082Z,49.45
2022-11-17T20:18:22.323Z,44.67
2022-11-17T20:21:06.775Z,48.10
2022-11-17T20:23:49.146Z,49.60
2022-11-17T20:26:32.987Z,47.83
2022-11-17T20:29:07.534Z,25.92
2022-11-17T20:31:40.360Z,49.05
2022-11-17T20:34:15.825Z,37.50
2022-11-17T20:36:47.097Z,42.95
2022-11-17T20:39:19.098Z,46.88
2022-11-17T20:41:50.548Z,50.10
2022-11-17T20:44:28.268Z,44.55
2022-11-17T20:46:59.756Z,48.05
2022-11-17T20:49:32.637Z,45.17
2022-11-17T20:52:06.878Z,54.45
2022-11-17T20:54:41.187Z,43.45
2022-11-17T20:57:12.478Z,40.13
2022-11-17T20:59:46.818Z,45.83
2022-11-17T21:02:18.441Z,44.47
2022-11-17T21:04:50.593Z,43.85
2022-11-17T21:07:22.007Z,44.17
2022-11-17T21:09:54.170Z,48.65
2022-11-17T21:12:25.523Z,52.22
2022-11-17T21:14:59.617Z,34.80
2022-11-17T21:17:43.317Z,45.17
2022-11-17T21:20:15.172Z,39.70
2022-11-17T21:22:50.188Z,45.50
2022-11-17T21:25:21.982Z,37.08
2022-11-17T21:27:53.597Z,37.80
2022-11-17T21:30:28.324Z,42.63
2022-11-17T21:33:00.163Z,42.88
2022-11-17T21:35:32.404Z,44.63
2022-11-17T21:38:03.899Z,44.00
2022-11-17T21:40:35.750Z,43.00
2022-11-17T21:43:07.009Z,42.55
2022-11-17T21:45:56.707Z,41.05
2022-11-17T21:48:28.987Z,40.08
2022-11-17T21:51:01.674Z,42.10
2022-11-17T21:53:35.083Z,43.08
2022-11-17T21:56:10.106Z,41.85
2022-11-17T21:58:42.641Z,43.28
2022-11-17T22:01:19.255Z,40.05
2022-11-17T22:03:51.611Z,39.40
2022-11-17T22:06:28.234Z,41.75
2022-11-17T22:09:02.521Z,37.28
2022-11-17T22:11:38.866Z,45.60
2022-11-17T22:14:13.597Z,42.05
2022-11-17T22:16:52.209Z,38.75
2022-11-17T22:19:25.886Z,39.58
2022-11-17T22:21:58.263Z,46.42
2022-11-17T22:24:29.745Z,39.67
2022-11-17T22:30:14.939Z,42.58
2022-11-17T22:32:49.394Z,40.13
2022-11-17T22:35:20.714Z,43.28
2022-11-17T22:37:52.575Z,36.83
2022-11-17T22:40:23.832Z,36.40
2022-11-17T22:42:56.147Z,46.90
2022-11-17T22:45:27.770Z,44.35
2022-11-17T22:48:03.048Z,39.80
2022-11-17T22:50:34.626Z,42.58
2022-11-17T22:53:06.787Z,48.47
2022-11-17T22:55:38.352Z,48.17
2022-11-17T22:58:10.499Z,48.97
2022-11-17T23:00:41.934Z,40.20
2022-11-17T23:03:16.250Z,48.42
2022-11-17T23:05:48.162Z,48.17
2022-11-17T23:08:19.678Z,39.17
2022-11-17T23:11:03.883Z,49.67
2022-11-17T23:13:42.901Z,51.50
2022-11-17T23:16:14.080Z,48.15
2022-11-17T23:18:49.010Z,44.58
2022-11-17T23:21:19.994Z,53.58
2022-11-17T23:23:52.400Z,53.13
2022-11-17T23:26:23.762Z,48.60
2022-11-17T23:28:58.269Z,58.13
2022-11-17T23:31:30.014Z,56.10
2022-11-17T23:34:04.567Z,55.13
2022-11-17T23:36:35.942Z,48.78
2022-11-17T23:39:08.313Z,57.80
2022-11-17T23:41:40.589Z,57.50
2022-11-17T23:44:12.412Z,56.22
2022-11-17T23:46:43.872Z,51.15
2022-11-17T23:49:19.231Z,58.35
2022-11-17T23:51:51.633Z,52.95
2022-11-17T23:54:23.318Z,56.35
2022-11-17T23:56:54.770Z,58.55
2022-11-17T23:59:26.981Z,55.88
